Time;durP1;ratioP1;P1;durP2;ratioP2;P2;SDS_P1;SDS_P2;PMS_P1;PMS_P2;Temp;Humidity;BMP_temperature;BMP_pressure;BME280_temperature;BME280_humidity;BME280_pressure;Samples;Min_cycle;Max_cycle;Signal;HPM_P1;HPM_P2
2023/07/24 00:01:16;;;;;;;11.70;5.60;;;17.00;99.90;;;;;;5003846;28;20837;-68
2023/07/24 00:03:42;;;;;;;8.27;5.55;;;17.00;99.90;;;;;;5001352;28;20394;-68
2023/07/24 00:06:08;;;;;;;11.98;5.70;;;17.00;99.90;;;;;;5008208;28;20041;-67
2023/07/24 00:08:33;;;;;;;12.98;6.28;;;17.10;99.90;;;;;;5008263;28;20050;-68
2023/07/24 00:10:59;;;;;;;13.38;5.55;;;17.00;99.90;;;;;;5007697;28;20129;-69
2023/07/24 00:13:25;;;;;;;13.43;6.07;;;16.90;99.90;;;;;;5001409;28;20050;-68
2023/07/24 00:15:51;;;;;;;11.75;5.93;;;16.90;99.90;;;;;;5008484;28;20120;-68
2023/07/24 00:18:17;;;;;;;14.88;5.95;;;16.90;99.90;;;;;;5005778;28;20057;-68
2023/07/24 00:20:42;;;;;;;13.65;6.18;;;16.90;99.90;;;;;;5002568;28;20050;-68
2023/07/24 00:23:08;;;;;;;11.63;6.13;;;16.90;99.90;;;;;;4995172;28;20057;-68
2023/07/24 00:25:33;;;;;;;12.20;6.85;;;16.80;99.90;;;;;;5004604;28;20100;-68
2023/07/24 00:27:59;;;;;;;13.90;6.70;;;16.80;99.90;;;;;;5001193;28;20097;-69
2023/07/24 00:30:25;;;;;;;14.25;6.65;;;16.80;99.90;;;;;;4991646;28;20129;-68
2023/07/24 00:32:50;;;;;;;9.27;6.70;;;16.70;99.90;;;;;;5002081;28;20042;-68
2023/07/24 00:35:16;;;;;;;11.25;6.85;;;16.70;99.90;;;;;;5003606;28;20042;-68
2023/07/24 00:37:41;;;;;;;12.15;7.03;;;16.70;99.90;;;;;;5004110;28;20045;-68
2023/07/24 00:40:08;;;;;;;13.02;7.22;;;16.70;99.90;;;;;;4993748;28;20112;-71
2023/07/24 00:42:33;;;;;;;15.55;6.88;;;16.90;99.90;;;;;;5003905;28;20278;-70
2023/07/24 00:44:59;;;;;;;10.43;7.45;;;16.60;99.90;;;;;;5003245;28;20082;-68
2023/07/24 00:47:27;;;;;;;12.82;7.03;;;16.70;99.90;;;;;;4991039;28;20046;-71
2023/07/24 00:49:53;;;;;;;13.00;6.75;;;16.60;99.90;;;;;;4990905;28;20054;-68
2023/07/24 00:52:19;;;;;;;13.88;6.80;;;16.70;99.90;;;;;;5002935;28;20470;-69
2023/07/24 00:54:46;;;;;;;11.68;7.03;;;16.60;99.90;;;;;;5003561;28;20100;-69
2023/07/24 00:57:12;;;;;;;16.25;6.75;;;16.60;99.90;;;;;;5002791;28;20042;-71
2023/07/24 00:59:37;;;;;;;13.75;6.47;;;16.60;99.90;;;;;;5004106;28;20042;-70
2023/07/24 01:02:03;;;;;;;13.77;6.28;;;16.50;99.90;;;;;;5004724;28;20222;-69
2023/07/24 01:04:29;;;;;;;11.55;6.35;;;16.50;99.90;;;;;;4993584;28;20042;-69
2023/07/24 01:06:55;;;;;;;12.70;7.07;;;16.50;99.90;;;;;;5003189;28;20493;-70
2023/07/24 01:09:21;;;;;;;14.95;6.13;;;16.50;99.90;;;;;;5006560;28;20124;-70
2023/07/24 01:11:54;;;;;;;10.30;6.93;;;16.50;99.90;;;;;;4993945;28;20167;-69
2023/07/24 01:14:26;;;;;;;14.20;6.85;;;16.40;99.90;;;;;;5003297;28;20520;-70
2023/07/24 01:16:55;;;;;;;12.95;6.63;;;16.40;99.90;;;;;;4998886;28;20165;-71
2023/07/24 01:19:42;;;;;;;13.15;7.32;;;16.40;99.90;;;;;;5006935;28;20492;-69
2023/07/24 01:22:12;;;;;;;13.77;8.15;;;16.40;99.90;;;;;;5000379;28;20401;-70
2023/07/24 01:24:53;;;;;;;14.52;7.25;;;16.30;99.90;;;;;;5000621;28;20145;-71
2023/07/24 01:27:25;;;;;;;12.48;7.60;;;16.30;99.90;;;;;;5003337;28;20046;-68
2023/07/24 01:29:50;;;;;;;15.00;8.48;;;16.30;99.90;;;;;;4992854;28;20045;-70
2023/07/24 01:32:17;;;;;;;14.73;8.82;;;16.30;99.90;;;;;;5006619;28;20042;-69
2023/07/24 01:34:42;;;;;;;17.17;9.35;;;16.30;99.90;;;;;;4989937;28;20046;-69
2023/07/24 01:37:11;;;;;;;15.07;9.02;;;16.20;99.90;;;;;;4992815;28;20050;-70
2023/07/24 01:39:37;;;;;;;14.13;9.27;;;16.20;99.90;;;;;;4993297;28;20060;-69
2023/07/24 01:42:03;;;;;;;13.80;9.32;;;16.20;99.90;;;;;;5002432;28;20052;-68
2023/07/24 01:44:29;;;;;;;13.20;9.20;;;16.20;99.90;;;;;;5002277;28;20064;-69
2023/07/24 01:46:55;;;;;;;17.83;10.70;;;16.20;99.90;;;;;;5002421;28;20493;-68
2023/07/24 01:49:20;;;;;;;14.77;10.95;;;16.20;99.90;;;;;;4999383;28;20042;-69
2023/07/24 01:51:46;;;;;;;16.58;11.40;;;16.20;99.90;;;;;;4998417;28;20042;-69
2023/07/24 01:54:12;;;;;;;15.23;10.82;;;16.30;99.90;;;;;;5000454;28;20077;-68
2023/07/24 01:56:39;;;;;;;15.43;11.13;;;16.30;99.90;;;;;;5010609;28;20040;-68
2023/07/24 01:59:05;;;;;;;17.52;11.25;;;16.30;99.90;;;;;;4992635;28;20764;-68
2023/07/24 02:01:31;;;;;;;19.55;11.95;;;16.30;99.90;;;;;;4992761;28;20481;-69
2023/07/24 02:03:57;;;;;;;17.38;11.75;;;16.20;99.90;;;;;;5006883;28;20050;-68
2023/07/24 02:06:22;;;;;;;17.58;11.75;;;16.20;99.90;;;;;;4990253;28;20046;-68
2023/07/24 02:08:51;;;;;;;17.40;11.85;;;16.30;99.90;;;;;;4992927;28;20049;-68
2023/07/24 02:11:17;;;;;;;19.00;11.15;;;16.20;99.90;;;;;;5002328;28;20069;-69
2023/07/24 02:13:45;;;;;;;14.27;10.40;;;16.30;99.90;;;;;;4999539;28;20401;-69
2023/07/24 02:16:14;;;;;;;15.48;11.63;;;16.20;99.90;;;;;;4998927;28;20061;-69
2023/07/24 02:18:43;;;;;;;14.57;11.30;;;16.20;99.90;;;;;;5000858;28;20184;-69
2023/07/24 02:21:09;;;;;;;16.63;10.98;;;16.20;99.90;;;;;;5009656;28;20046;-68
2023/07/24 02:23:35;;;;;;;14.80;11.10;;;16.20;99.90;;;;;;5001919;28;20048;-68
2023/07/24 02:26:00;;;;;;;16.60;11.73;;;16.20;99.90;;;;;;4999462;28;20054;-67
2023/07/24 02:28:26;;;;;;;14.85;11.23;;;16.20;99.90;;;;;;5007654;28;20060;-66
2023/07/24 02:30:55;;;;;;;21.60;11.80;;;16.20;99.90;;;;;;4990725;28;20081;-69
2023/07/24 02:33:22;;;;;;;15.57;10.70;;;16.10;99.90;;;;;;5004877;28;20042;-69
2023/07/24 02:35:49;;;;;;;19.73;11.00;;;16.20;99.90;;;;;;4991462;28;20111;-70
2023/07/24 02:38:15;;;;;;;17.25;10.93;;;16.20;99.90;;;;;;5001777;28;20042;-69
2023/07/24 02:40:41;;;;;;;20.15;10.93;;;16.20;99.90;;;;;;5001731;28;20045;-72
2023/07/24 02:43:06;;;;;;;15.27;10.50;;;16.30;99.90;;;;;;4990060;28;20068;-68
2023/07/24 02:45:38;;;;;;;14.55;10.10;;;16.20;99.90;;;;;;4998738;28;20424;-68
2023/07/24 02:48:05;;;;;;;16.17;10.32;;;16.20;99.90;;;;;;5006582;28;20527;-69
2023/07/24 02:50:32;;;;;;;15.13;10.18;;;16.20;99.90;;;;;;5002471;28;20056;-68
2023/07/24 02:52:57;;;;;;;14.80;9.85;;;16.30;99.90;;;;;;5002512;28;20046;-68
2023/07/24 02:55:23;;;;;;;16.13;10.23;;;16.30;99.90;;;;;;5000822;28;20053;-68
2023/07/24 02:57:49;;;;;;;19.63;10.55;;;16.30;99.90;;;;;;5001503;28;20038;-68
2023/07/24 03:00:15;;;;;;;16.48;9.57;;;16.30;99.90;;;;;;5008926;28;20489;-69
2023/07/24 03:02:40;;;;;;;15.10;10.18;;;16.30;99.90;;;;;;5011674;28;20038;-69
2023/07/24 03:05:06;;;;;;;15.57;9.82;;;16.40;99.90;;;;;;4980250;28;20061;-68
2023/07/24 03:07:32;;;;;;;17.67;9.68;;;16.40;99.90;;;;;;5013429;28;20046;-68
2023/07/24 03:09:58;;;;;;;16.95;9.15;;;16.40;99.90;;;;;;5005565;28;20050;-69
2023/07/24 03:12:24;;;;;;;13.75;9.70;;;16.40;99.90;;;;;;5005402;28;20058;-67
2023/07/24 03:14:50;;;;;;;14.65;9.40;;;16.40;99.90;;;;;;5002477;28;20375;-69
2023/07/24 03:17:15;;;;;;;17.90;9.40;;;16.40;99.90;;;;;;5002878;28;20048;-70
2023/07/24 03:19:41;;;;;;;16.00;9.63;;;16.40;99.90;;;;;;5006488;28;20030;-70
2023/07/24 03:22:07;;;;;;;12.65;9.50;;;16.40;99.90;;;;;;5008091;28;20054;-69
2023/07/24 03:24:34;;;;;;;13.48;9.13;;;16.40;99.90;;;;;;5002239;28;20114;-69
2023/07/24 03:27:00;;;;;;;15.27;9.05;;;16.40;99.90;;;;;;4995490;28;20049;-69
2023/07/24 03:29:26;;;;;;;13.45;8.48;;;16.50;99.90;;;;;;4995810;28;20088;-69
2023/07/24 03:31:52;;;;;;;15.80;8.90;;;16.50;99.90;;;;;;5004691;28;20850;-69
2023/07/24 03:34:18;;;;;;;13.70;8.70;;;16.50;99.90;;;;;;5010744;28;20046;-72
2023/07/24 03:36:43;;;;;;;13.52;8.20;;;16.50;99.90;;;;;;5013015;28;20087;-70
2023/07/24 03:39:10;;;;;;;16.00;8.10;;;16.50;99.90;;;;;;5002838;28;20042;-69
2023/07/24 03:41:36;;;;;;;15.80;8.30;;;16.60;99.90;;;;;;5002033;28;20093;-69
2023/07/24 03:44:01;;;;;;;14.90;7.90;;;16.60;99.90;;;;;;5002836;28;20958;-69
2023/07/24 03:46:27;;;;;;;12.93;7.97;;;16.60;99.90;;;;;;5012789;28;20077;-68
2023/07/24 03:48:52;;;;;;;14.57;8.25;;;16.60;99.90;;;;;;5004765;28;20129;-70
2023/07/24 03:51:18;;;;;;;14.57;7.53;;;16.60;99.90;;;;;;4994592;28;20050;-68
2023/07/24 03:53:44;;;;;;;14.75;7.60;;;16.60;99.90;;;;;;4995656;28;20528;-69
2023/07/24 03:56:09;;;;;;;18.73;8.63;;;16.60;99.90;;;;;;5004635;28;20046;-69
2023/07/24 03:58:35;;;;;;;10.63;8.10;;;16.60;99.90;;;;;;5009419;28;20130;-69
2023/07/24 04:01:00;;;;;;;12.73;7.35;;;16.60;99.90;;;;;;5002441;28;20058;-68
2023/07/24 04:03:26;;;;;;;10.80;8.02;;;16.60;99.90;;;;;;5004616;28;20477;-68
2023/07/24 04:05:52;;;;;;;11.40;7.28;;;16.60;99.90;;;;;;5004559;28;20192;-71
2023/07/24 04:08:17;;;;;;;14.25;8.23;;;16.60;99.90;;;;;;5004236;28;20042;-69
2023/07/24 04:10:43;;;;;;;12.10;7.30;;;16.60;99.90;;;;;;5004332;28;20045;-70
2023/07/24 04:13:08;;;;;;;12.50;7.80;;;16.70;99.90;;;;;;5012199;28;20408;-69
2023/07/24 04:15:34;;;;;;;11.05;8.32;;;16.70;99.90;;;;;;5003897;28;20505;-69
2023/07/24 04:17:59;;;;;;;13.30;7.72;;;16.70;99.90;;;;;;5004429;28;20121;-68
2023/07/24 04:20:25;;;;;;;12.68;8.13;;;16.60;99.90;;;;;;5006248;28;20525;-69
2023/07/24 04:22:51;;;;;;;15.00;8.68;;;16.70;99.90;;;;;;5012331;28;20053;-69
2023/07/24 04:25:16;;;;;;;10.98;8.13;;;16.70;99.90;;;;;;4995049;28;20060;-69
2023/07/24 04:27:42;;;;;;;15.25;8.95;;;16.70;99.90;;;;;;4994726;28;20042;-69
2023/07/24 04:30:08;;;;;;;13.75;8.77;;;16.70;99.90;;;;;;5009580;28;20046;-68
2023/07/24 04:32:33;;;;;;;13.43;8.95;;;16.70;99.90;;;;;;5005338;28;20038;-69
2023/07/24 04:34:59;;;;;;;13.30;9.77;;;16.70;99.90;;;;;;5008372;28;20084;-69
2023/07/24 04:37:25;;;;;;;12.27;9.20;;;16.70;99.90;;;;;;5003870;28;20042;-68
2023/07/24 04:39:50;;;;;;;15.45;9.05;;;16.70;99.90;;;;;;5004036;28;20042;-70
2023/07/24 04:42:16;;;;;;;16.05;9.13;;;16.80;99.90;;;;;;5001186;28;20046;-69
2023/07/24 04:44:41;;;;;;;11.32;8.77;;;16.60;99.90;;;;;;5000951;28;20417;-69
2023/07/24 04:47:07;;;;;;;13.80;10.70;;;16.80;99.90;;;;;;4994048;28;20058;-70
2023/07/24 04:49:33;;;;;;;12.77;9.10;;;16.80;99.90;;;;;;4994328;28;20053;-68
2023/07/24 04:51:59;;;;;;;11.75;9.07;;;16.80;99.90;;;;;;4993681;28;20108;-68
2023/07/24 04:54:25;;;;;;;12.18;9.80;;;16.80;99.90;;;;;;5009225;28;20046;-68
2023/07/24 04:56:50;;;;;;;15.55;10.27;;;16.80;99.90;;;;;;5000504;28;20038;-69
2023/07/24 04:59:16;;;;;;;11.93;9.43;;;16.80;99.90;;;;;;5001175;28;20049;-69
2023/07/24 05:01:42;;;;;;;13.13;9.95;;;16.90;99.90;;;;;;4994470;28;20099;-68
2023/07/24 05:04:08;;;;;;;14.02;8.90;;;16.80;99.90;;;;;;5003228;28;20576;-67
2023/07/24 05:06:35;;;;;;;12.30;9.57;;;16.90;99.90;;;;;;4991232;28;20056;-69
2023/07/24 05:09:01;;;;;;;12.13;9.35;;;16.90;99.90;;;;;;5006258;28;20060;-69
2023/07/24 05:11:27;;;;;;;14.32;9.73;;;16.90;99.90;;;;;;5002498;28;20096;-69
2023/07/24 05:13:53;;;;;;;16.27;9.35;;;16.90;99.90;;;;;;5000488;28;20050;-68
2023/07/24 05:16:18;;;;;;;12.77;9.10;;;16.90;99.90;;;;;;5006869;28;20398;-69
2023/07/24 05:18:44;;;;;;;14.07;9.02;;;16.90;99.90;;;;;;5002806;28;20062;-69
2023/07/24 05:21:09;;;;;;;13.23;10.00;;;17.00;99.90;;;;;;5010949;28;20061;-69
2023/07/24 05:23:35;;;;;;;14.00;9.68;;;17.00;99.90;;;;;;5002962;28;20050;-72
2023/07/24 05:26:02;;;;;;;12.27;8.45;;;17.00;99.90;;;;;;5003074;28;20537;-68
2023/07/24 05:28:30;;;;;;;13.40;9.93;;;17.00;99.90;;;;;;5002897;28;20397;-68
2023/07/24 05:30:59;;;;;;;15.10;10.25;;;17.10;99.90;;;;;;5000864;28;20052;-68
2023/07/24 05:33:25;;;;;;;15.02;10.00;;;17.10;99.90;;;;;;4999636;28;20453;-69
2023/07/24 05:35:50;;;;;;;15.90;10.50;;;17.10;99.90;;;;;;5006932;28;20117;-68
2023/07/24 05:38:16;;;;;;;17.70;9.05;;;17.10;99.90;;;;;;5010632;28;20508;-68
2023/07/24 05:40:41;;;;;;;13.73;9.65;;;17.10;99.90;;;;;;5002875;28;20076;-69
2023/07/24 05:43:07;;;;;;;13.82;9.45;;;17.10;99.90;;;;;;5000179;28;20050;-68
2023/07/24 05:45:33;;;;;;;16.00;9.73;;;17.20;99.90;;;;;;4992856;28;20048;-68
2023/07/24 05:47:58;;;;;;;15.02;10.02;;;17.20;99.90;;;;;;4990306;28;20070;-68
2023/07/24 05:50:24;;;;;;;18.20;10.48;;;17.20;99.90;;;;;;5002618;28;20069;-68
2023/07/24 05:52:50;;;;;;;13.05;9.45;;;17.20;99.90;;;;;;5010313;28;20453;-68
2023/07/24 05:55:15;;;;;;;13.68;9.45;;;17.20;99.90;;;;;;5002999;28;20046;-68
2023/07/24 05:57:41;;;;;;;15.98;10.68;;;17.20;99.90;;;;;;4993215;28;20034;-68
2023/07/24 06:00:07;;;;;;;13.65;9.88;;;17.20;99.90;;;;;;5009291;28;20045;-70
2023/07/24 06:02:32;;;;;;;13.02;9.32;;;17.20;99.90;;;;;;5005717;28;20112;-72
2023/07/24 06:04:58;;;;;;;14.40;9.52;;;17.20;99.90;;;;;;5004353;28;20533;-72
2023/07/24 06:07:24;;;;;;;16.20;9.35;;;17.20;99.90;;;;;;5000011;28;20081;-70
2023/07/24 06:09:50;;;;;;;16.10;10.18;;;17.20;99.90;;;;;;5002147;28;20042;-68
2023/07/24 06:12:15;;;;;;;14.82;9.73;;;17.30;99.90;;;;;;5002097;28;20037;-69
2023/07/24 06:14:41;;;;;;;14.48;9.68;;;17.30;99.90;;;;;;5002114;28;20409;-69
2023/07/24 06:17:06;;;;;;;14.52;9.55;;;17.30;99.90;;;;;;4989511;28;20512;-69
2023/07/24 06:19:32;;;;;;;15.30;9.43;;;17.30;99.90;;;;;;4992206;28;20049;-69
2023/07/24 06:21:58;;;;;;;13.35;9.73;;;17.40;99.90;;;;;;5009763;28;20058;-71
2023/07/24 06:24:23;;;;;;;12.55;9.07;;;17.50;99.90;;;;;;5003362;28;20053;-69
2023/07/24 06:26:50;;;;;;;18.00;9.20;;;17.50;99.90;;;;;;5000989;28;20042;-68
2023/07/24 06:29:16;;;;;;;14.02;9.25;;;17.50;99.90;;;;;;5002165;28;20120;-70
2023/07/24 06:31:41;;;;;;;14.20;8.52;;;17.60;99.90;;;;;;5002036;28;20045;-70
2023/07/24 06:34:07;;;;;;;15.82;9.52;;;17.60;99.90;;;;;;4989286;28;20050;-71
2023/07/24 06:36:33;;;;;;;14.68;9.60;;;17.60;99.90;;;;;;5008889;28;20033;-68
2023/07/24 06:38:58;;;;;;;15.98;9.05;;;17.60;99.90;;;;;;4996581;28;20050;-72
2023/07/24 06:41:25;;;;;;;14.50;9.07;;;17.60;99.90;;;;;;5005515;28;20049;-69
2023/07/24 06:43:51;;;;;;;18.75;9.75;;;17.60;99.90;;;;;;4998771;28;20050;-69
2023/07/24 06:46:16;;;;;;;18.35;9.65;;;17.70;99.90;;;;;;4992083;28;20052;-69
2023/07/24 06:48:42;;;;;;;13.65;9.95;;;17.80;99.90;;;;;;5001933;28;20038;-69
2023/07/24 06:51:08;;;;;;;13.90;9.10;;;17.80;99.90;;;;;;5001646;28;20528;-70
2023/07/24 06:53:33;;;;;;;16.30;10.00;;;17.80;99.90;;;;;;5005176;28;20046;-68
2023/07/24 06:55:59;;;;;;;15.93;10.00;;;17.90;99.90;;;;;;5006046;28;20462;-69
2023/07/24 06:58:24;;;;;;;13.82;9.13;;;17.90;99.90;;;;;;5001640;28;20077;-70
2023/07/24 07:00:50;;;;;;;16.55;9.40;;;17.90;99.90;;;;;;5001368;28;20505;-69
2023/07/24 07:03:16;;;;;;;16.98;9.85;;;18.00;99.90;;;;;;5009122;28;20121;-67
2023/07/24 07:05:41;;;;;;;14.82;9.20;;;18.00;99.90;;;;;;5009655;28;20050;-69
2023/07/24 07:08:07;;;;;;;18.25;9.05;;;18.00;99.90;;;;;;5002504;28;20061;-72
2023/07/24 07:10:33;;;;;;;16.92;9.15;;;18.00;99.90;;;;;;5007463;28;20108;-67
2023/07/24 07:12:58;;;;;;;17.20;9.20;;;18.10;99.90;;;;;;5001476;28;20129;-69
2023/07/24 07:15:24;;;;;;;14.82;9.80;;;18.10;99.90;;;;;;4992149;28;20085;-69
2023/07/24 07:17:49;;;;;;;20.23;10.13;;;18.10;99.90;;;;;;4989042;28;20038;-69
2023/07/24 07:20:15;;;;;;;17.88;9.48;;;18.10;99.90;;;;;;4998589;28;20526;-68
2023/07/24 07:22:41;;;;;;;12.73;9.30;;;18.20;99.90;;;;;;4999673;28;20043;-69
2023/07/24 07:25:07;;;;;;;18.52;10.45;;;18.20;99.90;;;;;;4992071;28;20081;-69
2023/07/24 07:27:32;;;;;;;16.05;9.77;;;18.20;99.90;;;;;;5001572;28;20042;-69
2023/07/24 07:29:58;;;;;;;12.18;8.48;;;18.30;99.90;;;;;;4998585;28;20046;-69
2023/07/24 07:32:27;;;;;;;15.65;9.40;;;18.30;99.90;;;;;;4988550;28;20038;-70
2023/07/24 07:34:52;;;;;;;15.52;9.60;;;18.40;99.90;;;;;;4998987;28;20405;-69
2023/07/24 07:37:18;;;;;;;15.35;9.98;;;18.40;99.90;;;;;;5001168;28;20125;-72
2023/07/24 07:39:44;;;;;;;16.35;8.77;;;18.40;99.90;;;;;;4991413;28;20053;-69
2023/07/24 07:42:09;;;;;;;19.40;9.77;;;18.50;99.90;;;;;;5008987;28;20058;-70
2023/07/24 07:44:35;;;;;;;16.80;8.95;;;18.50;99.90;;;;;;4991549;28;20049;-70
2023/07/24 07:47:00;;;;;;;17.42;9.60;;;18.50;99.90;;;;;;4989205;28;20050;-68
2023/07/24 07:49:26;;;;;;;17.90;9.23;;;18.60;99.90;;;;;;5002571;28;20205;-69
2023/07/24 07:51:52;;;;;;;17.23;9.50;;;18.60;99.90;;;;;;5004849;28;20042;-72
2023/07/24 07:54:18;;;;;;;19.08;9.48;;;18.60;99.90;;;;;;5003491;28;20080;-67
2023/07/24 07:56:44;;;;;;;12.43;7.88;;;18.70;99.90;;;;;;4995467;28;20101;-69
2023/07/24 07:59:09;;;;;;;15.95;9.18;;;18.80;99.90;;;;;;5012920;28;20463;-68
2023/07/24 08:01:39;;;;;;;17.55;9.18;;;18.80;99.90;;;;;;4992560;28;20061;-70
2023/07/24 08:04:04;;;;;;;21.85;8.55;;;18.90;99.90;;;;;;5002277;28;20096;-68
2023/07/24 08:06:30;;;;;;;15.25;8.88;;;18.90;99.90;;;;;;5004038;28;20133;-70
2023/07/24 08:08:56;;;;;;;19.45;9.52;;;19.00;99.90;;;;;;5007444;28;20046;-69
2023/07/24 08:11:21;;;;;;;15.40;8.85;;;19.00;99.90;;;;;;5013054;28;20049;-70
2023/07/24 08:13:47;;;;;;;19.15;8.68;;;19.00;99.90;;;;;;5009994;28;20050;-70
2023/07/24 08:16:18;;;;;;;19.48;8.75;;;19.10;99.90;;;;;;5002116;28;20053;-68
2023/07/24 08:18:45;;;;;;;18.00;9.02;;;19.00;99.90;;;;;;5004212;28;20057;-68
2023/07/24 08:21:11;;;;;;;16.27;8.48;;;19.00;99.90;;;;;;4994992;28;20092;-68
2023/07/24 08:23:37;;;;;;;17.63;9.48;;;19.00;99.90;;;;;;5012297;28;20057;-67
2023/07/24 08:26:02;;;;;;;16.20;8.70;;;19.10;99.90;;;;;;5002328;28;20397;-67
2023/07/24 08:28:28;;;;;;;17.75;9.63;;;19.10;99.90;;;;;;4992679;28;20429;-69
2023/07/24 08:30:59;;;;;;;18.73;9.38;;;19.10;99.90;;;;;;5003948;28;20532;-68
2023/07/24 08:33:24;;;;;;;19.88;9.10;;;19.10;99.90;;;;;;5010014;28;20042;-67
2023/07/24 08:36:01;;;;;;;18.50;8.75;;;19.10;99.90;;;;;;5011934;28;20041;-68
2023/07/24 08:38:27;;;;;;;22.13;8.88;;;19.10;99.90;;;;;;5004863;28;20042;-69
2023/07/24 08:41:07;;;;;;;17.45;8.65;;;19.20;99.90;;;;;;5012429;28;20030;-71
2023/07/24 08:43:34;;;;;;;15.75;8.65;;;19.20;99.90;;;;;;5001423;28;20125;-68
2023/07/24 08:46:01;;;;;;;26.05;8.50;;;19.20;99.90;;;;;;5010032;28;20096;-70
2023/07/24 08:48:39;;;;;;;23.10;8.68;;;19.20;99.90;;;;;;4994962;28;20069;-73
2023/07/24 08:51:07;;;;;;;15.85;8.63;;;19.40;99.90;;;;;;4994432;28;20046;-69
2023/07/24 08:53:37;;;;;;;19.92;8.90;;;19.60;99.90;;;;;;4992080;28;20058;-69
2023/07/24 08:56:03;;;;;;;20.00;8.55;;;19.60;99.90;;;;;;4995467;28;20502;-73
2023/07/24 08:58:29;;;;;;;19.70;9.13;;;19.70;99.90;;;;;;5004918;28;20119;-68
2023/07/24 09:00:57;;;;;;;19.08;9.32;;;19.70;99.90;;;;;;4994718;28;20085;-75
2023/07/24 09:03:23;;;;;;;21.92;8.82;;;19.70;99.90;;;;;;5002555;28;20420;-70
2023/07/24 09:05:49;;;;;;;19.77;9.88;;;19.70;99.90;;;;;;5000989;28;20046;-70
2023/07/24 09:08:15;;;;;;;18.48;9.45;;;19.60;99.90;;;;;;4993239;28;20053;-69
2023/07/24 09:10:40;;;;;;;15.77;9.10;;;19.70;99.90;;;;;;5012110;28;20037;-69
2023/07/24 09:13:07;;;;;;;20.42;9.68;;;19.80;99.90;;;;;;5004257;28;20120;-68
2023/07/24 09:15:44;;;;;;;20.20;8.77;;;19.90;99.90;;;;;;4994221;28;20493;-70
2023/07/24 09:18:11;;;;;;;15.60;7.18;;;19.90;99.90;;;;;;5006050;28;20070;-68
2023/07/24 09:20:41;;;;;;;15.13;6.90;;;19.90;99.90;;;;;;5001749;28;20110;-68
2023/07/24 09:23:10;;;;;;;17.48;8.35;;;19.90;99.90;;;;;;4994159;28;20131;-70
2023/07/24 09:25:37;;;;;;;17.27;8.00;;;20.00;99.90;;;;;;5011661;28;20046;-68
2023/07/24 09:28:11;;;;;;;14.13;7.60;;;20.20;99.90;;;;;;5003119;28;20823;-68
2023/07/24 09:30:39;;;;;;;15.40;7.30;;;20.20;99.90;;;;;;5003866;28;20046;-68
2023/07/24 09:33:05;;;;;;;14.30;7.35;;;20.30;99.90;;;;;;5003554;28;20501;-67
2023/07/24 09:35:31;;;;;;;15.95;7.35;;;20.40;99.90;;;;;;5005244;28;20042;-69
2023/07/24 09:38:11;;;;;;;15.52;7.47;;;20.50;99.90;;;;;;5002015;28;20117;-70
2023/07/24 09:40:45;;;;;;;14.23;6.50;;;20.60;99.90;;;;;;4993857;28;20041;-70
2023/07/24 09:43:25;;;;;;;19.10;8.23;;;20.60;99.90;;;;;;4988042;28;20092;-69
2023/07/24 09:45:52;;;;;;;18.75;8.90;;;21.10;99.90;;;;;;4987755;28;20069;-69
2023/07/24 09:48:19;;;;;;;15.90;8.90;;;21.20;99.90;;;;;;4988821;28;20093;-70
2023/07/24 09:50:47;;;;;;;14.38;8.35;;;21.60;99.90;;;;;;4989936;28;20057;-70
2023/07/24 09:53:28;;;;;;;14.82;9.70;;;21.80;99.90;;;;;;4991887;28;20185;-67
2023/07/24 09:56:09;;;;;;;16.67;8.75;;;22.00;99.90;;;;;;4998510;28;20137;-67
2023/07/24 09:58:37;;;;;;;16.55;8.65;;;22.20;99.90;;;;;;4984972;28;20093;-68
2023/07/24 10:01:05;;;;;;;18.38;8.45;;;22.50;99.90;;;;;;4983856;28;20038;-69
2023/07/24 10:03:38;;;;;;;14.43;7.05;;;22.50;99.90;;;;;;4981299;28;20104;-67
2023/07/24 10:06:04;;;;;;;10.93;7.13;;;22.40;99.90;;;;;;4979560;28;20097;-68
2023/07/24 10:08:30;;;;;;;11.30;5.85;;;22.40;99.90;;;;;;4990429;28;20038;-69
2023/07/24 10:10:59;;;;;;;8.63;5.75;;;22.60;99.90;;;;;;4991214;28;20061;-68
2023/07/24 10:13:27;;;;;;;12.52;6.25;;;22.60;99.90;;;;;;4988352;28;20042;-68
2023/07/24 10:15:52;;;;;;;12.38;6.20;;;22.70;99.90;;;;;;4984288;28;20067;-69
2023/07/24 10:18:29;;;;;;;9.38;5.75;;;22.90;99.90;;;;;;4983879;28;20391;-69
2023/07/24 10:21:03;;;;;;;12.90;5.80;;;22.80;99.90;;;;;;4984303;28;20092;-66
2023/07/24 10:23:29;;;;;;;8.40;5.17;;;22.80;99.90;;;;;;4981563;28;20102;-69
2023/07/24 10:25:54;;;;;;;9.40;4.40;;;22.90;99.90;;;;;;4985541;28;20205;-69
2023/07/24 10:28:34;;;;;;;11.35;5.03;;;23.00;99.90;;;;;;4985673;28;20042;-68
2023/07/24 10:31:01;;;;;;;10.02;5.80;;;23.00;99.90;;;;;;4983250;28;20417;-67
2023/07/24 10:33:31;;;;;;;12.05;5.63;;;22.90;99.90;;;;;;4981577;28;20050;-69
2023/07/24 10:36:09;;;;;;;12.82;5.82;;;22.90;99.90;;;;;;4982960;28;20061;-69
2023/07/24 10:38:39;;;;;;;13.00;5.05;;;23.10;99.90;;;;;;4988521;28;20482;-69
2023/07/24 10:41:06;;;;;;;11.93;5.07;;;23.20;99.90;;;;;;4989681;28;20050;-70
2023/07/24 10:43:45;;;;;;;8.38;4.57;;;23.20;99.90;;;;;;4987575;28;20054;-69
2023/07/24 10:46:13;;;;;;;10.85;5.25;;;22.90;99.90;;;;;;4989442;28;20050;-68
2023/07/24 10:48:42;;;;;;;12.55;5.50;;;22.90;99.90;;;;;;4985088;28;20716;-68
2023/07/24 10:51:09;;;;;;;10.55;5.53;;;22.70;99.90;;;;;;4989362;28;20057;-68
2023/07/24 10:53:38;;;;;;;8.70;5.20;;;22.60;99.90;;;;;;4987516;28;20047;-68
2023/07/24 10:56:06;;;;;;;11.23;5.28;;;22.50;99.90;;;;;;4990352;28;20042;-69
2023/07/24 10:58:32;;;;;;;7.63;5.25;;;22.40;99.90;;;;;;4989147;28;20103;-68
2023/07/24 11:00:58;;;;;;;11.68;5.20;;;22.50;99.90;;;;;;4990920;28;20088;-69
2023/07/24 11:03:25;;;;;;;11.95;6.18;;;22.40;99.90;;;;;;4982381;28;20049;-68
2023/07/24 11:05:50;;;;;;;11.90;4.80;;;22.60;99.90;;;;;;4990647;28;20042;-68
2023/07/24 11:08:20;;;;;;;11.70;4.72;;;22.20;99.90;;;;;;4988068;28;20371;-69
2023/07/24 11:10:47;;;;;;;8.95;4.28;;;22.10;99.90;;;;;;4988410;28;20104;-67
2023/07/24 11:13:13;;;;;;;8.95;4.47;;;22.10;99.90;;;;;;4991014;28;20100;-68
2023/07/24 11:15:39;;;;;;;9.07;4.95;;;22.00;99.90;;;;;;4988738;28;20050;-68
2023/07/24 11:18:08;;;;;;;9.13;4.55;;;21.80;99.90;;;;;;4988135;28;20508;-71
2023/07/24 11:20:38;;;;;;;7.55;5.32;;;21.80;99.90;;;;;;4988127;28;20185;-69
2023/07/24 11:23:03;;;;;;;9.80;5.28;;;21.50;99.90;;;;;;4991647;28;20089;-67
2023/07/24 11:25:30;;;;;;;15.05;6.32;;;21.50;99.90;;;;;;4993989;28;20069;-69
2023/07/24 11:27:55;;;;;;;10.18;6.13;;;21.50;99.90;;;;;;4989258;28;20038;-74
2023/07/24 11:30:21;;;;;;;13.90;6.03;;;21.50;99.90;;;;;;4992040;28;20391;-67
2023/07/24 11:32:48;;;;;;;11.00;6.28;;;21.40;99.90;;;;;;4992901;28;20410;-71
2023/07/24 11:35:14;;;;;;;10.75;6.28;;;21.50;99.90;;;;;;4993851;28;20072;-67
2023/07/24 11:37:40;;;;;;;11.20;5.97;;;21.40;99.90;;;;;;4993913;28;20093;-71
2023/07/24 11:40:14;;;;;;;13.05;6.13;;;21.60;99.90;;;;;;4994088;28;20126;-67
2023/07/24 11:42:42;;;;;;;;;;;21.70;99.90;;;;;;4988041;28;20058;-68
2023/07/24 11:45:09;;;;;;;9.70;5.93;;;21.90;99.90;;;;;;4986196;28;19936;-69
2023/07/24 11:47:45;;;;;;;12.10;6.13;;;22.20;99.90;;;;;;4990885;28;20558;-68
2023/07/24 11:50:12;;;;;;;9.90;5.30;;;22.30;99.90;;;;;;4992848;28;20096;-66
2023/07/24 11:52:48;;;;;;;9.88;4.90;;;22.30;99.90;;;;;;4989605;28;20466;-67
2023/07/24 11:55:36;;;;;;;11.77;5.53;;;22.30;99.90;;;;;;4990851;28;20062;-73
2023/07/24 11:58:03;;;;;;;11.65;4.95;;;22.10;99.90;;;;;;4992837;28;20042;-73
2023/07/24 12:00:33;;;;;;;10.48;5.53;;;22.00;99.90;;;;;;4993000;28;20046;-71
2023/07/24 12:03:00;;;;;;;10.52;5.60;;;21.80;99.90;;;;;;4992540;28;20050;-68
2023/07/24 12:05:25;;;;;;;10.85;5.80;;;21.80;99.90;;;;;;4988334;28;20049;-73
2023/07/24 12:07:54;;;;;;;13.90;5.53;;;21.80;99.90;;;;;;4990157;28;20042;-69
2023/07/24 12:10:28;;;;;;;11.80;5.97;;;21.70;99.90;;;;;;4988742;28;20554;-72
2023/07/24 12:12:57;;;;;;;10.07;6.32;;;21.70;99.90;;;;;;4993908;28;20050;-67
2023/07/24 12:15:23;;;;;;;8.27;5.13;;;21.50;99.90;;;;;;4983918;28;20057;-67
2023/07/24 12:17:48;;;;;;;7.80;5.40;;;21.20;99.90;;;;;;4985390;28;20030;-68
2023/07/24 12:20:14;;;;;;;8.90;5.85;;;21.00;99.90;;;;;;4993204;28;20512;-67
2023/07/24 12:22:40;;;;;;;13.45;5.75;;;20.80;99.90;;;;;;4992782;28;20141;-72
2023/07/24 12:25:06;;;;;;;12.05;4.65;;;20.60;99.90;;;;;;4990527;28;20397;-67
2023/07/24 12:27:32;;;;;;;10.20;4.55;;;20.30;99.90;;;;;;4985301;28;20060;-67
2023/07/24 12:29:59;;;;;;;11.00;4.00;;;20.20;99.90;;;;;;4992594;28;20093;-72
2023/07/24 12:32:24;;;;;;;8.23;3.17;;;20.10;99.90;;;;;;4991996;28;20073;-68
2023/07/24 12:34:51;;;;;;;6.10;2.33;;;19.90;99.90;;;;;;4983402;28;20771;-67